createdAt,value
2022-10-26T00:00:51.546Z,3.65
2022-10-26T00:03:18.328Z,3.60
2022-10-26T00:05:45.428Z,3.38
2022-10-26T00:08:11.920Z,3.25
2022-10-26T00:10:39.016Z,3.05
2022-10-26T00:13:13.462Z,3.45
2022-10-26T00:15:41.891Z,3.67
2022-10-26T00:18:09.146Z,3.35
2022-10-26T00:20:35.624Z,3.13
2022-10-26T00:23:01.977Z,3.38
2022-10-26T00:25:28.427Z,3.80
2022-10-26T00:27:54.808Z,3.27
2022-10-26T00:30:21.273Z,3.25
2022-10-26T00:32:47.682Z,3.25
2022-10-26T00:35:22.874Z,3.70
2022-10-26T00:37:56.188Z,3.50
2022-10-26T00:40:27.327Z,3.72
2022-10-26T00:42:53.834Z,3.20
2022-10-26T00:45:30.511Z,3.70
2022-10-26T00:48:06.552Z,2.92
2022-10-26T00:50:44.341Z,3.30
2022-10-26T00:53:12.218Z,3.17
2022-10-26T00:55:44.509Z,3.30
2022-10-26T00:58:11.801Z,3.05
2022-10-26T01:00:40.709Z,2.95
2022-10-26T01:03:08.855Z,3.33
2022-10-26T01:05:38.610Z,2.73
2022-10-26T01:08:05.913Z,2.90
2022-10-26T01:10:32.893Z,3.28
2022-10-26T01:12:59.855Z,3.13
2022-10-26T01:16:03.972Z,2.80
2022-10-26T01:18:38.683Z,2.27
2022-10-26T01:21:28.160Z,2.58
2022-10-26T01:24:19.485Z,2.40
2022-10-26T01:26:45.885Z,2.55
2022-10-26T01:29:22.666Z,2.50
2022-10-26T01:31:58.403Z,2.40
2022-10-26T01:34:36.190Z,2.28
2022-10-26T01:37:10.255Z,2.47
2022-10-26T01:39:45.974Z,2.45
2022-10-26T01:42:15.542Z,2.53
2022-10-26T01:44:49.793Z,2.13
2022-10-26T01:47:18.353Z,2.40
2022-10-26T01:49:50.126Z,2.60
2022-10-26T01:52:19.510Z,2.13
2022-10-26T01:54:45.897Z,2.35
2022-10-26T01:57:17.207Z,2.40
2022-10-26T02:00:05.739Z,2.47
2022-10-26T02:02:35.106Z,2.42
2022-10-26T02:05:10.595Z,2.25
2022-10-26T02:07:51.309Z,2.67
2022-10-26T02:10:51.697Z,2.57
2022-10-26T02:13:31.687Z,2.67
2022-10-26T02:16:09.870Z,2.75
2022-10-26T02:18:51.793Z,3.17
2022-10-26T02:21:24.022Z,2.50
2022-10-26T02:23:54.733Z,2.67
2022-10-26T02:26:25.561Z,3.20
2022-10-26T02:28:56.166Z,3.22
2022-10-26T02:31:24.794Z,3.38
2022-10-26T02:33:54.095Z,3.17
2022-10-26T02:36:30.893Z,2.60
2022-10-26T02:38:58.773Z,2.95
2022-10-26T02:41:28.509Z,2.90
2022-10-26T02:44:05.136Z,3.22
2022-10-26T02:46:31.820Z,3.00
2022-10-26T02:48:58.745Z,3.30
2022-10-26T02:51:40.122Z,3.00
2022-10-26T02:54:28.402Z,3.67
2022-10-26T02:57:01.890Z,2.85
2022-10-26T02:59:33.631Z,2.72
2022-10-26T03:02:00.767Z,3.30
2022-10-26T03:04:32.017Z,2.92
2022-10-26T03:06:58.512Z,2.97
2022-10-26T03:09:25.730Z,3.42
2022-10-26T03:11:52.660Z,3.00
2022-10-26T03:14:19.290Z,3.28
2022-10-26T03:16:46.017Z,3.00
2022-10-26T03:19:12.419Z,3.05
2022-10-26T03:21:38.813Z,3.33
2022-10-26T03:24:05.486Z,3.30
2022-10-26T03:26:31.879Z,2.87
2022-10-26T03:28:58.197Z,3.30
2022-10-26T03:31:24.851Z,3.13
2022-10-26T03:33:51.228Z,2.88
2022-10-26T03:36:17.869Z,3.72
2022-10-26T03:38:44.237Z,3.40
2022-10-26T03:41:10.578Z,3.15
2022-10-26T03:43:36.960Z,3.63
2022-10-26T03:46:03.346Z,3.63
2022-10-26T03:48:29.702Z,3.08
2022-10-26T03:50:59.555Z,2.87
2022-10-26T03:53:26.773Z,2.95
2022-10-26T03:55:53.297Z,3.17
2022-10-26T03:58:19.710Z,2.97
2022-10-26T04:00:47.367Z,3.03
2022-10-26T04:03:13.753Z,3.10
2022-10-26T04:05:40.080Z,3.10
2022-10-26T04:08:06.718Z,3.55
2022-10-26T04:10:33.053Z,3.55
2022-10-26T04:13:01.104Z,3.25
2022-10-26T04:15:28.716Z,3.42
2022-10-26T04:17:59.236Z,3.33
2022-10-26T04:20:27.212Z,2.53
2022-10-26T04:22:58.360Z,3.45
2022-10-26T04:25:27.533Z,3.30
2022-10-26T04:27:56.638Z,3.50
2022-10-26T04:30:23.681Z,3.35
2022-10-26T04:32:50.577Z,3.00
2022-10-26T04:35:17.553Z,2.95
2022-10-26T04:37:43.908Z,3.03
2022-10-26T04:40:10.866Z,3.00
2022-10-26T04:42:47.895Z,3.05
2022-10-26T04:45:16.693Z,3.40
2022-10-26T04:47:43.564Z,3.20
2022-10-26T04:50:12.233Z,3.05
2022-10-26T04:52:38.839Z,3.03
2022-10-26T04:55:06.685Z,3.50
2022-10-26T04:57:34.118Z,3.55
2022-10-26T05:00:01.801Z,3.28
2022-10-26T05:02:29.247Z,2.78
2022-10-26T05:04:55.717Z,3.40
2022-10-26T05:07:22.196Z,3.42
2022-10-26T05:09:48.539Z,3.10
2022-10-26T05:12:14.871Z,3.00
2022-10-26T05:14:42.097Z,2.60
2022-10-26T05:17:08.516Z,2.67
2022-10-26T05:19:34.885Z,2.67
2022-10-26T05:22:01.214Z,2.90
2022-10-26T05:24:27.550Z,2.90
2022-10-26T05:26:53.909Z,2.97
2022-10-26T05:29:20.314Z,2.80
2022-10-26T05:31:46.659Z,3.00
2022-10-26T05:34:13.066Z,2.67
2022-10-26T05:36:39.570Z,2.85
2022-10-26T05:39:06.142Z,3.30
2022-10-26T05:41:32.615Z,3.00
2022-10-26T05:43:58.959Z,2.88
2022-10-26T05:46:25.329Z,2.92
2022-10-26T05:48:51.662Z,3.70
2022-10-26T05:51:18.048Z,2.75
2022-10-26T05:53:44.419Z,2.90
2022-10-26T05:56:20.345Z,2.60
2022-10-26T05:58:48.272Z,2.92
2022-10-26T06:01:20.824Z,3.05
2022-10-26T06:04:10.703Z,2.72
2022-10-26T06:06:45.858Z,2.80
2022-10-26T06:09:14.356Z,2.70
2022-10-26T06:11:41.296Z,2.75
2022-10-26T06:14:09.686Z,2.97
2022-10-26T06:19:30.632Z,2.60
2022-10-26T06:22:03.158Z,3.00
2022-10-26T06:24:44.161Z,2.47
2022-10-26T06:27:33.654Z,2.60
2022-10-26T06:30:10.073Z,2.78
2022-10-26T06:32:36.721Z,2.60
2022-10-26T06:35:17.597Z,2.65
2022-10-26T06:37:45.711Z,2.83
2022-10-26T06:40:14.511Z,2.50
2022-10-26T06:42:41.222Z,2.60
2022-10-26T06:45:12.338Z,2.67
2022-10-26T06:48:16.119Z,2.30
2022-10-26T06:50:50.111Z,2.80
2022-10-26T06:53:26.621Z,2.92
2022-10-26T06:55:53.253Z,2.80
2022-10-26T06:58:23.509Z,2.60
2022-10-26T07:00:51.911Z,2.13
2022-10-26T07:03:19.315Z,2.65
2022-10-26T07:05:46.110Z,2.35
2022-10-26T07:08:12.742Z,2.42
2022-10-26T07:10:39.766Z,2.70
2022-10-26T07:13:06.663Z,2.65
2022-10-26T07:15:34.269Z,3.00
2022-10-26T07:18:01.146Z,2.90
2022-10-26T07:20:27.482Z,2.70
2022-10-26T07:22:55.065Z,3.10
2022-10-26T07:25:22.427Z,2.88
2022-10-26T07:27:49.149Z,2.63
2022-10-26T07:30:15.868Z,2.45
2022-10-26T07:32:42.261Z,2.92
2022-10-26T07:35:09.016Z,2.40
2022-10-26T07:37:35.484Z,2.90
2022-10-26T07:40:05.670Z,2.50
2022-10-26T07:42:33.850Z,2.75
2022-10-26T07:45:00.193Z,2.85
2022-10-26T07:47:26.551Z,2.77
2022-10-26T07:49:52.861Z,2.70
2022-10-26T07:52:19.180Z,2.40
2022-10-26T07:54:45.506Z,2.53
2022-10-26T07:57:11.877Z,2.63
2022-10-26T07:59:38.396Z,2.63
2022-10-26T08:02:04.821Z,2.72
2022-10-26T08:04:31.249Z,2.67
2022-10-26T08:06:57.732Z,2.25
2022-10-26T08:09:24.165Z,2.45
2022-10-26T08:11:50.703Z,2.63
2022-10-26T08:14:17.091Z,2.80
2022-10-26T08:16:43.492Z,2.90
2022-10-26T08:19:09.953Z,2.30
2022-10-26T08:21:39.800Z,2.42
2022-10-26T08:24:07.643Z,2.50
2022-10-26T08:26:34.013Z,2.40
2022-10-26T08:29:00.475Z,2.47
2022-10-26T08:31:26.866Z,2.60
2022-10-26T08:33:53.292Z,2.28
2022-10-26T08:36:27.797Z,2.28
2022-10-26T08:38:54.391Z,2.28
2022-10-26T08:41:33.394Z,2.00
2022-10-26T08:44:07.827Z,2.30
2022-10-26T08:46:39.956Z,2.28
2022-10-26T08:49:30.488Z,2.20
2022-10-26T08:52:01.698Z,2.13
2022-10-26T08:54:43.328Z,2.00
2022-10-26T08:57:30.130Z,2.05
2022-10-26T09:00:01.518Z,1.88
2022-10-26T09:02:28.238Z,1.88
2022-10-26T09:04:57.210Z,1.90
2022-10-26T09:07:29.592Z,1.90
2022-10-26T09:13:06.237Z,1.67
2022-10-26T09:15:35.456Z,2.28
2022-10-26T09:18:20.647Z,1.90
2022-10-26T09:20:46.977Z,2.08
2022-10-26T09:23:31.891Z,1.83
2022-10-26T09:26:02.980Z,2.30
2022-10-26T09:28:35.086Z,2.20
2022-10-26T09:31:03.749Z,2.07
2022-10-26T09:33:34.582Z,2.10
2022-10-26T09:36:13.169Z,2.10
2022-10-26T09:38:50.582Z,2.20
2022-10-26T09:41:38.327Z,1.85
2022-10-26T09:44:19.097Z,1.93
2022-10-26T09:46:55.569Z,1.70
2022-10-26T09:49:31.243Z,1.67
2022-10-26T09:51:57.865Z,1.63
2022-10-26T09:54:24.283Z,1.42
2022-10-26T09:56:58.559Z,1.70
2022-10-26T09:59:25.974Z,1.60
2022-10-26T10:01:52.503Z,1.20
2022-10-26T10:04:23.975Z,1.63
2022-10-26T10:06:52.695Z,1.77
2022-10-26T10:09:24.266Z,1.70
2022-10-26T10:11:59.556Z,1.45
2022-10-26T10:14:32.603Z,1.27
2022-10-26T10:17:06.012Z,1.42
2022-10-26T10:19:35.510Z,1.30
2022-10-26T10:22:18.608Z,1.27
2022-10-26T10:25:21.938Z,1.50
2022-10-26T10:27:54.224Z,1.20
2022-10-26T10:30:23.482Z,1.27
2022-10-26T10:33:05.812Z,1.50
2022-10-26T10:35:32.764Z,1.60
2022-10-26T10:37:59.875Z,1.50
2022-10-26T10:40:30.698Z,1.63
2022-10-26T10:43:07.316Z,1.38
2022-10-26T10:45:35.453Z,1.60
2022-10-26T10:48:20.327Z,1.77
2022-10-26T10:50:59.227Z,1.50
2022-10-26T10:53:43.689Z,1.60
2022-10-26T10:56:28.793Z,1.85
2022-10-26T10:59:22.388Z,1.55
2022-10-26T11:01:58.083Z,1.93
2022-10-26T11:05:02.096Z,1.70
2022-10-26T11:07:32.567Z,2.38
2022-10-26T11:10:03.752Z,2.17
2022-10-26T11:12:37.492Z,1.70
2022-10-26T11:15:12.660Z,2.03
2022-10-26T11:17:55.092Z,2.40
2022-10-26T11:20:24.631Z,1.88
2022-10-26T11:25:51.531Z,2.00
2022-10-26T11:28:44.866Z,2.33
2022-10-26T11:31:17.364Z,2.38
2022-10-26T11:34:01.659Z,2.40
2022-10-26T11:36:31.627Z,2.28
2022-10-26T11:39:23.563Z,2.10
2022-10-26T11:41:57.780Z,2.37
2022-10-26T11:44:35.440Z,2.20
2022-10-26T11:47:08.422Z,2.00
2022-10-26T11:49:57.723Z,2.13
2022-10-26T11:52:34.776Z,1.77
2022-10-26T11:55:04.487Z,2.00
2022-10-26T11:57:35.427Z,1.40
2022-10-26T12:00:08.122Z,1.50
2022-10-26T12:05:27.184Z,1.38
2022-10-26T12:07:57.840Z,1.50
2022-10-26T12:10:34.466Z,1.42
2022-10-26T12:13:11.022Z,1.88
2022-10-26T12:16:02.351Z,1.85
2022-10-26T12:18:54.454Z,1.63
2022-10-26T12:21:23.600Z,1.80
2022-10-26T12:24:25.945Z,1.50
2022-10-26T12:26:57.845Z,1.88
2022-10-26T12:29:46.134Z,1.40
2022-10-26T12:32:43.866Z,1.63
2022-10-26T12:35:30.700Z,1.50
2022-10-26T12:37:57.833Z,1.50
2022-10-26T12:40:33.077Z,1.67
2022-10-26T12:43:19.349Z,1.60
2022-10-26T12:45:47.621Z,1.42
2022-10-26T12:48:38.153Z,1.40
2022-10-26T12:51:26.966Z,1.20
2022-10-26T12:54:30.671Z,1.73
2022-10-26T12:57:17.785Z,1.40
2022-10-26T12:59:53.833Z,1.42
2022-10-26T13:02:58.465Z,1.30
2022-10-26T13:05:58.315Z,1.20
2022-10-26T13:08:25.040Z,1.20
2022-10-26T13:11:04.893Z,1.63
2022-10-26T13:13:33.783Z,1.38
2022-10-26T13:16:02.355Z,1.40
2022-10-26T13:18:29.922Z,1.38
2022-10-26T13:21:11.502Z,1.75
2022-10-26T13:23:40.615Z,1.67
2022-10-26T13:26:11.974Z,2.25
2022-10-26T13:28:38.266Z,1.57
2022-10-26T13:31:39.493Z,1.77
2022-10-26T13:34:05.848Z,1.75
2022-10-26T13:36:50.245Z,1.55
2022-10-26T13:39:35.288Z,1.83
2022-10-26T13:42:02.378Z,2.00
2022-10-26T13:44:35.245Z,1.90
2022-10-26T13:47:10.111Z,2.10
2022-10-26T13:49:43.360Z,1.70
2022-10-26T13:52:16.254Z,1.90
2022-10-26T13:54:49.686Z,1.80
2022-10-26T13:58:18.008Z,2.00
2022-10-26T14:01:02.685Z,1.50
2022-10-26T14:03:29.179Z,1.70
2022-10-26T14:05:56.398Z,2.03
2022-10-26T14:08:23.204Z,2.03
2022-10-26T14:10:59.092Z,1.80
2022-10-26T14:13:27.855Z,2.08
2022-10-26T14:15:56.774Z,2.08
2022-10-26T14:18:29.282Z,1.83
2022-10-26T14:21:01.346Z,2.13
2022-10-26T14:23:45.928Z,1.90
2022-10-26T14:26:39.707Z,2.30
2022-10-26T14:29:16.317Z,2.10
2022-10-26T14:31:42.706Z,2.15
2022-10-26T14:34:12.040Z,2.30
2022-10-26T14:36:44.417Z,1.85
2022-10-26T14:39:38.651Z,1.77
2022-10-26T14:42:22.598Z,1.45
2022-10-26T14:44:49.163Z,1.20
2022-10-26T14:47:28.772Z,1.37
2022-10-26T14:49:55.962Z,1.17
2022-10-26T14:52:27.628Z,0.95
2022-10-26T14:54:59.338Z,1.13
2022-10-26T14:57:32.260Z,0.95
2022-10-26T15:00:11.115Z,1.13
2022-10-26T15:02:37.627Z,0.85
2022-10-26T15:05:18.331Z,0.68
2022-10-26T15:07:45.526Z,0.80
2022-10-26T15:10:36.941Z,0.70
2022-10-26T15:13:10.348Z,0.80
2022-10-26T15:15:39.665Z,0.65
2022-10-26T15:18:19.594Z,0.80
2022-10-26T15:20:48.763Z,0.80
2022-10-26T15:23:15.519Z,0.80
2022-10-26T15:25:54.660Z,0.70
2022-10-26T15:28:30.645Z,0.80
2022-10-26T15:31:03.707Z,0.63
2022-10-26T15:33:30.887Z,0.90
2022-10-26T15:36:33.214Z,0.80
2022-10-26T15:38:59.658Z,0.70
2022-10-26T15:41:31.573Z,0.80
2022-10-26T15:44:06.049Z,0.70
2022-10-26T15:46:41.194Z,0.93
2022-10-26T15:49:14.740Z,0.77
2022-10-26T15:51:41.126Z,0.90
2022-10-26T15:54:07.654Z,0.70
2022-10-26T15:56:34.065Z,0.80
2022-10-26T15:59:00.423Z,1.13
2022-10-26T16:01:28.993Z,0.70
2022-10-26T16:03:55.731Z,0.90
2022-10-26T16:06:27.639Z,1.08
2022-10-26T16:08:57.339Z,1.10
2022-10-26T16:11:24.048Z,0.80
2022-10-26T16:16:22.183Z,0.60
2022-10-26T16:18:58.030Z,0.68
2022-10-26T16:21:32.726Z,0.75
2022-10-26T16:23:59.055Z,0.82
2022-10-26T16:26:25.488Z,0.80
2022-10-26T16:28:52.293Z,0.87
2022-10-26T16:31:20.718Z,1.05
2022-10-26T16:33:47.167Z,0.90
2022-10-26T16:36:13.965Z,0.70
2022-10-26T16:38:40.625Z,0.85
2022-10-26T16:41:14.540Z,0.90
2022-10-26T16:43:42.767Z,1.63
2022-10-26T16:46:12.585Z,1.20
2022-10-26T16:48:39.937Z,1.27
2022-10-26T16:51:18.739Z,1.05
2022-10-26T16:53:47.947Z,1.27
2022-10-26T16:56:17.473Z,1.23
2022-10-26T16:58:44.223Z,0.95
2022-10-26T17:01:12.927Z,1.13
2022-10-26T17:03:40.171Z,1.35
2022-10-26T17:06:07.703Z,1.23
2022-10-26T17:08:36.029Z,1.30
2022-10-26T17:11:08.255Z,1.15
2022-10-26T17:13:35.837Z,1.40
2022-10-26T17:16:23.187Z,1.63
2022-10-26T17:18:50.549Z,1.70
2022-10-26T17:21:19.303Z,1.33
2022-10-26T17:23:46.017Z,1.30
2022-10-26T17:26:14.402Z,1.20
2022-10-26T17:28:40.812Z,1.23
2022-10-26T17:31:08.697Z,1.10
2022-10-26T17:33:36.845Z,1.40
2022-10-26T17:36:05.686Z,1.27
2022-10-26T17:38:33.792Z,1.10
2022-10-26T17:41:08.768Z,1.40
2022-10-26T17:43:37.452Z,1.07
2022-10-26T17:46:07.120Z,1.10
2022-10-26T17:48:34.133Z,1.05
2022-10-26T17:51:02.392Z,1.45
2022-10-26T17:53:29.611Z,1.27
2022-10-26T17:56:14.740Z,1.30
2022-10-26T17:58:41.117Z,1.25
2022-10-26T18:01:10.742Z,1.20
2022-10-26T18:03:38.389Z,1.13
2022-10-26T18:06:07.482Z,0.90
2022-10-26T18:08:35.292Z,1.10
2022-10-26T18:11:01.743Z,1.15
2022-10-26T18:13:31.202Z,1.60
2022-10-26T18:16:08.671Z,1.05
2022-10-26T18:18:35.884Z,1.10
2022-10-26T18:21:07.270Z,1.47
2022-10-26T18:23:33.686Z,1.42
2022-10-26T18:26:24.254Z,2.00
2022-10-26T18:28:50.631Z,1.33
2022-10-26T18:31:19.798Z,1.92
2022-10-26T18:33:46.762Z,1.73
2022-10-26T18:36:17.988Z,1.60
2022-10-26T18:38:46.550Z,2.03
2022-10-26T18:41:14.980Z,1.63
2022-10-26T18:43:43.205Z,2.00
2022-10-26T18:46:21.517Z,1.87
2022-10-26T18:48:48.088Z,1.77
2022-10-26T18:51:16.827Z,1.70
2022-10-26T18:53:44.203Z,2.10
2022-10-26T18:56:19.374Z,1.60
2022-10-26T18:58:48.559Z,1.80
2022-10-26T19:01:17.890Z,2.13
2022-10-26T19:03:45.264Z,1.55
2022-10-26T19:06:13.400Z,2.20
2022-10-26T19:08:40.386Z,1.50
2022-10-26T19:11:09.206Z,1.87
2022-10-26T19:13:36.040Z,2.00
2022-10-26T19:16:12.639Z,1.90
2022-10-26T19:18:48.690Z,2.15
2022-10-26T19:21:17.862Z,1.77
2022-10-26T19:23:46.779Z,1.80
2022-10-26T19:26:15.752Z,1.98
2022-10-26T19:28:42.698Z,2.00
2022-10-26T19:31:11.877Z,1.70
2022-10-26T19:33:38.635Z,1.77
2022-10-26T19:36:07.877Z,2.00
2022-10-26T19:38:34.289Z,2.00
2022-10-26T19:41:03.779Z,2.05
2022-10-26T19:43:32.410Z,2.50
2022-10-26T19:46:05.170Z,1.83
2022-10-26T19:48:31.638Z,1.90
2022-10-26T19:50:58.473Z,2.30
2022-10-26T19:53:25.009Z,1.90
2022-10-26T19:55:59.991Z,1.92
2022-10-26T19:58:28.783Z,2.35
2022-10-26T20:01:04.776Z,2.10
2022-10-26T20:03:31.413Z,2.17
2022-10-26T20:05:59.855Z,2.10
2022-10-26T20:08:26.575Z,1.98
2022-10-26T20:10:57.956Z,2.40
2022-10-26T20:13:24.852Z,2.37
2022-10-26T20:15:52.068Z,1.73
2022-10-26T20:18:20.918Z,2.08
2022-10-26T20:20:47.771Z,1.80
2022-10-26T20:23:14.305Z,2.40
2022-10-26T20:25:49.408Z,2.10
2022-10-26T20:28:17.889Z,2.10
2022-10-26T20:30:47.094Z,2.25
2022-10-26T20:33:13.884Z,2.20
2022-10-26T20:35:40.374Z,2.03
2022-10-26T20:38:07.911Z,2.10
2022-10-26T20:40:34.736Z,1.85
2022-10-26T20:43:01.702Z,1.90
2022-10-26T20:45:30.486Z,2.13
2022-10-26T20:47:58.588Z,2.40
2022-10-26T20:50:27.470Z,2.73
2022-10-26T20:53:02.996Z,2.38
2022-10-26T20:55:49.724Z,1.95
2022-10-26T20:58:37.688Z,1.98
2022-10-26T21:01:28.737Z,2.20
2022-10-26T21:03:57.123Z,2.30
2022-10-26T21:06:24.760Z,2.78
2022-10-26T21:08:53.062Z,2.47
2022-10-26T21:11:20.876Z,2.25
2022-10-26T21:13:48.499Z,2.38
2022-10-26T21:16:16.345Z,2.50
2022-10-26T21:18:43.230Z,2.58
2022-10-26T21:21:09.809Z,2.45
2022-10-26T21:23:38.451Z,2.65
2022-10-26T21:26:05.145Z,2.70
2022-10-26T21:28:41.425Z,3.13
2022-10-26T21:31:10.827Z,2.58
2022-10-26T21:33:37.453Z,2.83
2022-10-26T21:36:06.798Z,2.75
2022-10-26T21:38:34.128Z,2.88
2022-10-26T21:41:21.159Z,2.73
2022-10-26T21:43:49.528Z,2.67
2022-10-26T21:46:18.692Z,2.40
2022-10-26T21:48:45.778Z,2.70
2022-10-26T21:51:17.811Z,2.55
2022-10-26T21:53:44.717Z,2.33
2022-10-26T21:56:17.532Z,2.90
2022-10-26T21:58:44.506Z,2.75
2022-10-26T22:01:13.088Z,2.58
2022-10-26T22:03:40.569Z,3.03
2022-10-26T22:06:08.566Z,3.00
2022-10-26T22:08:36.092Z,2.83
2022-10-26T22:11:09.484Z,2.80
2022-10-26T22:13:37.234Z,3.05
2022-10-26T22:16:06.671Z,3.05
2022-10-26T22:18:37.513Z,2.80
2022-10-26T22:21:04.922Z,3.10
2022-10-26T22:23:38.764Z,2.63
2022-10-26T22:26:11.079Z,2.92
2022-10-26T22:28:41.690Z,2.50
2022-10-26T22:31:12.856Z,3.00
2022-10-26T22:33:39.211Z,2.85
2022-10-26T22:36:10.883Z,3.30
2022-10-26T22:38:37.312Z,2.65
2022-10-26T22:41:04.010Z,3.00
2022-10-26T22:43:30.857Z,2.77
2022-10-26T22:46:08.519Z,2.67
2022-10-26T22:48:35.370Z,2.70
2022-10-26T22:51:06.741Z,2.72
2022-10-26T22:53:33.063Z,2.60
2022-10-26T22:56:00.924Z,2.80
2022-10-26T22:58:27.418Z,3.38
2022-10-26T23:01:00.702Z,2.60
2022-10-26T23:03:28.389Z,3.10
2022-10-26T23:05:57.397Z,2.92
2022-10-26T23:08:24.242Z,2.70
2022-10-26T23:10:50.825Z,2.95
2022-10-26T23:13:17.173Z,2.70
2022-10-26T23:15:43.589Z,2.58
2022-10-26T23:18:10.054Z,2.33
2022-10-26T23:20:36.401Z,2.80
2022-10-26T23:23:02.880Z,2.40
2022-10-26T23:25:29.325Z,2.38
2022-10-26T23:27:55.700Z,2.60
2022-10-26T23:30:22.027Z,2.65
2022-10-26T23:32:48.674Z,2.60
2022-10-26T23:35:15.398Z,2.67
2022-10-26T23:37:41.779Z,2.55
2022-10-26T23:40:08.923Z,2.65
2022-10-26T23:42:35.298Z,2.47
2022-10-26T23:45:01.641Z,2.40
2022-10-26T23:47:27.987Z,2.50
2022-10-26T23:49:54.352Z,2.55
2022-10-26T23:52:20.665Z,2.53
2022-10-26T23:54:46.983Z,2.65
2022-10-26T23:57:13.332Z,2.40
2022-10-26T23:59:39.702Z,2.35
